createdAt,value
2022-12-28T00:02:24.732Z,2.00
2022-12-28T00:07:26.470Z,2.03
2022-12-28T00:12:29.428Z,1.23
2022-12-28T00:17:31.177Z,1.85
2022-12-28T00:22:32.907Z,1.95
2022-12-28T00:27:34.704Z,1.70
2022-12-28T00:32:36.476Z,1.38
2022-12-28T00:37:38.226Z,1.15
2022-12-28T00:42:40.010Z,1.40
2022-12-28T00:47:41.734Z,1.58
2022-12-28T00:52:43.450Z,1.88
2022-12-28T00:57:45.228Z,1.73
2022-12-28T01:02:47.135Z,1.65
2022-12-28T01:07:49.802Z,1.52
2022-12-28T01:12:53.435Z,1.60
2022-12-28T01:17:55.199Z,1.70
2022-12-28T01:22:56.969Z,1.60
2022-12-28T01:27:58.693Z,1.80
2022-12-28T01:33:00.472Z,2.10
2022-12-28T01:38:02.210Z,1.80
2022-12-28T01:43:12.031Z,1.80
2022-12-28T01:48:22.889Z,1.70
2022-12-28T01:53:24.761Z,1.80
2022-12-28T01:58:30.631Z,1.77
2022-12-28T02:03:34.545Z,1.77
2022-12-28T02:09:01.156Z,1.83
2022-12-28T02:19:08.503Z,1.35
2022-12-28T02:24:38.798Z,1.85
2022-12-28T02:29:42.678Z,1.85
2022-12-28T02:34:57.148Z,1.70
2022-12-28T02:40:04.838Z,1.80
2022-12-28T02:45:27.676Z,1.55
2022-12-28T02:50:47.105Z,1.65
2022-12-28T02:56:10.065Z,1.85
2022-12-28T03:01:27.365Z,2.10
2022-12-28T03:07:03.468Z,1.83
2022-12-28T03:12:14.648Z,2.10
2022-12-28T03:17:39.369Z,2.05
2022-12-28T03:23:02.319Z,1.50
2022-12-28T03:28:26.221Z,1.73
2022-12-28T03:33:28.238Z,1.75
2022-12-28T03:38:43.097Z,2.10
2022-12-28T03:43:51.434Z,1.42
2022-12-28T03:48:53.787Z,2.25
2022-12-28T03:53:55.826Z,3.72
2022-12-28T03:58:58.081Z,3.55
2022-12-28T04:04:09.222Z,4.43
2022-12-28T04:09:11.425Z,4.00
2022-12-28T04:14:16.327Z,4.80
2022-12-28T04:19:19.450Z,5.82
2022-12-28T04:24:22.510Z,7.18
2022-12-28T04:29:24.398Z,5.45
2022-12-28T04:34:35.782Z,6.60
2022-12-28T04:39:55.223Z,8.02
2022-12-28T04:44:58.965Z,9.05
2022-12-28T04:50:00.782Z,7.38
2022-12-28T04:55:02.556Z,7.65
2022-12-28T05:00:04.934Z,9.93
2022-12-28T05:05:07.315Z,8.48
2022-12-28T05:10:09.214Z,9.60
2022-12-28T05:15:11.288Z,11.15
2022-12-28T05:20:13.102Z,7.93
2022-12-28T05:25:14.839Z,8.48
2022-12-28T05:30:16.642Z,9.43
2022-12-28T05:35:18.433Z,8.88
2022-12-28T05:40:20.173Z,9.38
2022-12-28T05:45:22.030Z,8.65
2022-12-28T05:50:23.774Z,9.65
2022-12-28T05:55:25.695Z,9.65
2022-12-28T06:00:27.464Z,12.68
2022-12-28T06:05:29.306Z,8.98
2022-12-28T06:10:31.165Z,9.25
2022-12-28T06:15:32.914Z,7.75
2022-12-28T06:20:34.631Z,8.07
2022-12-28T06:25:38.102Z,9.48
2022-12-28T06:30:39.913Z,8.80
2022-12-28T06:35:41.901Z,9.00
2022-12-28T06:46:06.582Z,8.73
2022-12-28T06:51:16.017Z,8.60
2022-12-28T06:56:29.586Z,8.30
2022-12-28T07:01:34.723Z,8.88
2022-12-28T07:06:42.423Z,10.20
2022-12-28T07:16:47.894Z,9.15
2022-12-28T07:21:50.054Z,8.45
2022-12-28T07:26:51.851Z,8.85
2022-12-28T07:31:53.592Z,8.60
2022-12-28T07:36:55.398Z,16.10
2022-12-28T07:41:57.162Z,8.35
2022-12-28T07:46:58.909Z,8.15
2022-12-28T07:52:00.720Z,7.43
2022-12-28T07:57:02.645Z,8.23
2022-12-28T08:02:04.680Z,11.23
2022-12-28T08:07:06.718Z,12.32
2022-12-28T08:12:08.487Z,13.88
2022-12-28T08:17:11.469Z,11.90
2022-12-28T08:22:16.673Z,11.40
2022-12-28T08:27:18.408Z,10.02
2022-12-28T08:32:20.133Z,12.45
2022-12-28T08:37:21.876Z,9.45
2022-12-28T08:42:23.647Z,9.70
2022-12-28T08:47:25.374Z,9.10
2022-12-28T08:52:27.628Z,9.10
2022-12-28T08:57:29.415Z,9.52
2022-12-28T09:02:31.359Z,8.52
2022-12-28T09:07:33.246Z,9.27
2022-12-28T09:12:35.001Z,8.85
2022-12-28T09:17:36.830Z,12.90
2022-12-28T09:22:38.695Z,10.10
2022-12-28T09:27:40.631Z,9.40
2022-12-28T09:32:42.360Z,9.55
2022-12-28T09:37:45.048Z,9.73
2022-12-28T09:42:46.784Z,8.43
2022-12-28T09:47:52.230Z,8.38
2022-12-28T09:53:05.732Z,8.90
2022-12-28T09:58:14.756Z,7.78
2022-12-28T10:03:24.591Z,8.20
2022-12-28T10:08:28.621Z,10.00
2022-12-28T10:13:55.844Z,7.25
2022-12-28T10:18:58.938Z,6.13
2022-12-28T10:24:30.191Z,7.38
2022-12-28T10:29:25.575Z,5.90
2022-12-28T10:34:33.467Z,6.25
2022-12-28T10:39:36.867Z,8.65
2022-12-28T10:44:40.971Z,11.27
2022-12-28T10:50:10.169Z,11.27
2022-12-28T10:55:28.531Z,8.50
2022-12-28T11:00:30.322Z,11.00
2022-12-28T11:05:32.075Z,16.35
2022-12-28T11:10:33.852Z,7.93
2022-12-28T11:15:35.698Z,7.35
2022-12-28T11:20:41.762Z,6.07
2022-12-28T11:25:43.589Z,7.25
2022-12-28T11:30:46.959Z,5.63
2022-12-28T11:35:56.036Z,5.35
2022-12-28T11:41:00.771Z,6.10
2022-12-28T11:46:04.633Z,5.50
2022-12-28T11:51:21.711Z,5.25
2022-12-28T11:56:36.402Z,5.43
2022-12-28T12:01:41.045Z,5.70
2022-12-28T12:06:47.942Z,5.72
2022-12-28T12:11:50.656Z,4.90
2022-12-28T12:17:03.064Z,3.78
2022-12-28T12:22:25.853Z,4.30
2022-12-28T12:27:40.446Z,4.28
2022-12-28T12:32:51.448Z,6.07
2022-12-28T12:38:00.349Z,5.53
2022-12-28T12:43:35.945Z,4.90
2022-12-28T12:48:55.889Z,5.55
2022-12-28T12:54:21.140Z,5.15
2022-12-28T12:59:47.066Z,5.57
2022-12-28T13:04:49.269Z,4.57
2022-12-28T13:09:53.508Z,4.30
2022-12-28T13:15:00.657Z,4.47
2022-12-28T13:20:10.875Z,5.65
2022-12-28T13:25:31.129Z,4.57
2022-12-28T13:30:32.964Z,4.40
2022-12-28T13:35:34.982Z,4.35
2022-12-28T13:40:38.861Z,5.32
2022-12-28T13:45:41.538Z,4.43
2022-12-28T13:50:46.146Z,4.40
2022-12-28T13:55:52.824Z,5.65
2022-12-28T14:00:57.414Z,4.75
2022-12-28T14:06:00.893Z,4.32
2022-12-28T14:11:03.786Z,4.78
2022-12-28T14:16:06.523Z,4.35
2022-12-28T14:21:08.551Z,4.28
2022-12-28T14:26:20.454Z,5.15
2022-12-28T14:31:26.879Z,4.30
2022-12-28T14:36:36.880Z,4.35
2022-12-28T14:41:41.003Z,4.60
2022-12-28T14:46:42.968Z,5.93
2022-12-28T14:51:44.829Z,5.50
2022-12-28T14:56:55.122Z,5.30
2022-12-28T15:01:57.098Z,5.05
2022-12-28T15:06:59.170Z,5.95
2022-12-28T15:12:13.324Z,6.68
2022-12-28T15:17:16.508Z,5.38
2022-12-28T15:22:18.797Z,5.28
2022-12-28T15:27:20.619Z,5.60
2022-12-28T15:32:22.398Z,5.20
2022-12-28T15:37:24.196Z,4.70
2022-12-28T15:42:25.981Z,4.18
2022-12-28T15:47:27.778Z,5.22
2022-12-28T15:52:31.286Z,4.20
2022-12-28T15:57:33.060Z,6.30
2022-12-28T16:02:35.201Z,4.25
2022-12-28T16:07:37.133Z,3.85
2022-12-28T16:12:38.915Z,3.78
2022-12-28T16:17:51.120Z,6.00
2022-12-28T16:22:56.969Z,8.55
2022-12-28T16:27:58.762Z,8.38
2022-12-28T16:33:00.563Z,5.28
2022-12-28T16:38:02.409Z,6.25
2022-12-28T16:43:05.473Z,5.55
2022-12-28T16:48:09.883Z,5.18
2022-12-28T16:53:11.701Z,4.90
2022-12-28T16:58:13.450Z,9.75
2022-12-28T17:03:15.230Z,6.22
2022-12-28T17:08:17.623Z,7.43
2022-12-28T17:13:19.402Z,4.07
2022-12-28T17:18:21.162Z,3.47
2022-12-28T17:23:23.553Z,4.50
2022-12-28T17:28:25.372Z,3.90
2022-12-28T17:33:27.076Z,4.00
2022-12-28T17:38:29.233Z,5.95
2022-12-28T17:43:31.037Z,4.38
2022-12-28T17:48:32.831Z,5.03
2022-12-28T17:53:36.005Z,4.00
2022-12-28T17:58:38.167Z,4.20
2022-12-28T18:03:40.453Z,3.47
2022-12-28T18:08:42.337Z,4.10
2022-12-28T18:13:46.947Z,3.67
2022-12-28T18:18:49.828Z,3.67
2022-12-28T18:23:52.909Z,4.28
2022-12-28T18:28:55.962Z,4.38
2022-12-28T18:33:58.610Z,19.65
2022-12-28T18:39:00.354Z,5.20
2022-12-28T18:44:03.247Z,8.80
2022-12-28T18:49:05.104Z,10.65
2022-12-28T18:54:06.842Z,3.65
2022-12-28T18:59:08.706Z,5.03
2022-12-28T19:04:11.400Z,3.60
2022-12-28T19:09:13.535Z,5.68
2022-12-28T19:14:16.023Z,21.20
2022-12-28T19:19:18.014Z,51.53
2022-12-28T19:24:19.898Z,12.95
2022-12-28T19:29:21.614Z,13.40
2022-12-28T19:34:23.600Z,4.65
2022-12-28T19:39:25.372Z,3.33
2022-12-28T19:44:27.082Z,4.60
2022-12-28T19:49:28.807Z,3.42
2022-12-28T19:54:30.579Z,3.22
2022-12-28T19:59:32.300Z,2.83
2022-12-28T20:04:34.515Z,4.68
2022-12-28T20:09:38.362Z,3.67
2022-12-28T20:14:40.102Z,3.58
2022-12-28T20:19:45.345Z,2.72
2022-12-28T20:24:47.381Z,3.00
2022-12-28T20:29:49.129Z,4.43
2022-12-28T20:34:50.862Z,4.78
2022-12-28T20:39:53.833Z,3.25
2022-12-28T20:44:58.610Z,2.45
2022-12-28T20:50:00.420Z,2.65
2022-12-28T20:55:02.167Z,3.15
2022-12-28T21:00:04.313Z,2.80
2022-12-28T21:05:07.058Z,3.40
2022-12-28T21:10:09.396Z,3.20
2022-12-28T21:15:11.311Z,3.55
2022-12-28T21:20:13.042Z,3.63
2022-12-28T21:25:14.947Z,3.47
2022-12-28T21:30:17.233Z,3.17
2022-12-28T21:35:20.125Z,2.50
2022-12-28T21:40:21.909Z,2.80
2022-12-28T21:45:23.758Z,2.75
2022-12-28T21:50:25.612Z,2.75
2022-12-28T21:55:42.276Z,2.45
2022-12-28T22:01:02.577Z,2.28
2022-12-28T22:06:08.215Z,2.28
2022-12-28T22:11:31.757Z,2.42
2022-12-28T22:16:35.195Z,2.72
2022-12-28T22:21:37.024Z,2.40
2022-12-28T22:26:38.850Z,2.63
2022-12-28T22:31:41.168Z,2.30
2022-12-28T22:36:43.264Z,2.60
2022-12-28T22:41:45.058Z,2.22
2022-12-28T22:46:46.833Z,2.17
2022-12-28T22:51:48.573Z,2.22
2022-12-28T22:56:50.414Z,1.80
2022-12-28T23:01:53.546Z,2.55
2022-12-28T23:07:01.547Z,2.40
2022-12-28T23:12:05.436Z,1.95
2022-12-28T23:17:09.401Z,2.08
2022-12-28T23:22:36.355Z,2.28
2022-12-28T23:27:41.576Z,2.00
2022-12-28T23:32:44.987Z,2.08
2022-12-28T23:37:47.092Z,2.60
2022-12-28T23:42:49.626Z,2.00
2022-12-28T23:47:53.399Z,2.30
2022-12-28T23:52:55.136Z,1.70
2022-12-28T23:57:56.879Z,2.63
